createdAt,value
2022-08-14T00:01:15.511Z,2.00
2022-08-14T00:03:53.837Z,2.08
2022-08-14T00:06:28.771Z,2.20
2022-08-14T00:09:02.116Z,2.28
2022-08-14T00:11:32.074Z,2.10
2022-08-14T00:14:04.906Z,2.20
2022-08-14T00:16:41.732Z,2.22
2022-08-14T00:19:19.735Z,2.33
2022-08-14T00:21:57.266Z,2.15
2022-08-14T00:24:31.129Z,2.35
2022-08-14T00:27:05.366Z,1.98
2022-08-14T00:29:40.336Z,2.40
2022-08-14T00:32:51.662Z,2.10
2022-08-14T00:35:09.272Z,2.33
2022-08-14T00:37:45.544Z,2.40
2022-08-14T00:40:33.340Z,2.22
2022-08-14T00:43:02.780Z,2.45
2022-08-14T00:45:30.436Z,2.25
2022-08-14T00:48:00.023Z,2.78
2022-08-14T00:50:31.277Z,2.10
2022-08-14T00:53:06.566Z,2.55
2022-08-14T00:55:48.472Z,2.10
2022-08-14T00:58:34.156Z,2.22
2022-08-14T01:01:11.719Z,2.45
2022-08-14T01:03:42.297Z,2.35
2022-08-14T01:06:11.965Z,2.70
2022-08-14T01:08:52.234Z,2.30
2022-08-14T01:11:35.390Z,2.53
2022-08-14T01:14:18.120Z,2.13
2022-08-14T01:16:56.685Z,2.35
2022-08-14T01:19:48.122Z,2.17
2022-08-14T01:22:19.194Z,2.20
2022-08-14T01:24:47.495Z,2.00
2022-08-14T01:27:18.802Z,2.03
2022-08-14T01:30:10.375Z,1.90
2022-08-14T01:32:45.106Z,1.95
2022-08-14T01:36:05.127Z,2.10
2022-08-14T01:38:37.277Z,2.13
2022-08-14T01:41:23.112Z,2.22
2022-08-14T01:44:32.073Z,1.98
2022-08-14T01:47:01.401Z,1.90
2022-08-14T01:49:42.701Z,2.20
2022-08-14T01:52:34.319Z,2.10
2022-08-14T01:55:19.167Z,2.00
2022-08-14T02:09:22.252Z,2.50
2022-08-14T02:11:54.706Z,2.05
2022-08-14T02:14:31.663Z,2.28
2022-08-14T02:17:02.806Z,2.50
2022-08-14T02:19:32.462Z,2.38
2022-08-14T02:22:03.160Z,2.30
2022-08-14T02:24:40.006Z,1.98
2022-08-14T02:28:23.957Z,2.40
2022-08-14T02:30:01.984Z,2.25
2022-08-14T02:32:37.236Z,2.10
2022-08-14T02:35:22.050Z,1.80
2022-08-14T02:37:55.455Z,2.13
2022-08-14T02:40:32.624Z,2.28
2022-08-14T02:43:05.445Z,2.40
2022-08-14T02:45:44.662Z,2.42
2022-08-14T02:49:04.605Z,2.20
2022-08-14T02:51:11.335Z,2.40
2022-08-14T02:53:45.531Z,2.13
2022-08-14T02:56:30.867Z,2.17
2022-08-14T02:59:10.642Z,2.10
2022-08-14T03:01:51.170Z,2.17
2022-08-14T03:04:28.569Z,2.28
2022-08-14T03:07:07.463Z,2.15
2022-08-14T03:10:25.983Z,2.60
2022-08-14T03:12:32.227Z,2.40
2022-08-14T03:15:16.181Z,2.33
2022-08-14T03:17:57.511Z,2.40
2022-08-14T03:20:30.529Z,2.00
2022-08-14T03:23:04.804Z,2.20
2022-08-14T03:25:38.115Z,2.13
2022-08-14T03:28:14.575Z,2.17
2022-08-14T03:31:02.545Z,2.10
2022-08-14T03:33:38.338Z,2.17
2022-08-14T03:37:38.258Z,2.20
2022-08-14T03:39:13.230Z,2.58
2022-08-14T03:41:56.257Z,2.45
2022-08-14T03:45:19.716Z,2.30
2022-08-14T03:47:15.502Z,2.22
2022-08-14T03:49:50.027Z,2.40
2022-08-14T03:52:38.961Z,2.25
2022-08-14T03:55:14.553Z,2.10
2022-08-14T03:57:50.544Z,2.00
2022-08-14T04:00:43.267Z,2.17
2022-08-14T04:03:15.391Z,2.03
2022-08-14T04:05:49.342Z,2.22
2022-08-14T04:08:23.177Z,2.10
2022-08-14T04:11:02.021Z,2.25
2022-08-14T04:13:35.804Z,2.30
2022-08-14T04:16:20.558Z,2.25
2022-08-14T04:18:52.933Z,2.30
2022-08-14T04:21:28.615Z,2.30
2022-08-14T04:23:58.733Z,2.25
2022-08-14T04:26:42.946Z,2.35
2022-08-14T04:29:15.574Z,2.00
2022-08-14T04:33:00.715Z,2.53
2022-08-14T04:34:42.168Z,2.20
2022-08-14T04:37:28.413Z,2.20
2022-08-14T04:40:16.103Z,2.40
2022-08-14T04:43:04.475Z,2.20
2022-08-14T04:45:41.072Z,2.20
2022-08-14T04:48:39.573Z,2.20
2022-08-14T04:51:06.506Z,2.40
2022-08-14T04:53:36.183Z,1.83
2022-08-14T04:56:31.050Z,2.35
2022-08-14T04:59:11.051Z,2.20
2022-08-14T05:01:48.043Z,2.13
2022-08-14T05:04:26.130Z,2.10
2022-08-14T05:06:56.834Z,2.25
2022-08-14T05:09:28.770Z,2.30
2022-08-14T05:13:11.737Z,2.50
2022-08-14T05:15:02.184Z,2.42
2022-08-14T05:17:44.299Z,2.10
2022-08-14T05:21:54.521Z,2.90
2022-08-14T05:26:01.744Z,2.40
2022-08-14T05:28:34.276Z,2.50
2022-08-14T05:31:05.914Z,2.38
2022-08-14T05:33:40.335Z,2.30
2022-08-14T05:36:16.650Z,2.30
2022-08-14T05:38:50.854Z,2.38
2022-08-14T05:41:21.926Z,2.78
2022-08-14T05:43:51.101Z,2.40
2022-08-14T05:46:24.394Z,2.30
2022-08-14T05:48:56.173Z,2.40
2022-08-14T05:51:25.728Z,2.33
2022-08-14T05:54:01.535Z,2.50
2022-08-14T05:59:36.742Z,2.47
2022-08-14T06:02:14.355Z,2.38
2022-08-14T06:04:49.566Z,2.70
2022-08-14T06:07:16.954Z,2.50
2022-08-14T06:09:51.019Z,2.42
2022-08-14T06:12:31.317Z,2.20
2022-08-14T06:15:08.909Z,3.33
2022-08-14T06:17:47.200Z,2.20
2022-08-14T06:20:26.051Z,2.53
2022-08-14T06:22:56.466Z,2.38
2022-08-14T06:25:26.981Z,2.10
2022-08-14T06:27:58.038Z,2.00
2022-08-14T06:35:04.622Z,2.20
2022-08-14T06:36:22.954Z,2.20
2022-08-14T06:38:53.309Z,2.08
2022-08-14T06:41:56.676Z,2.25
2022-08-14T06:44:12.929Z,2.40
2022-08-14T06:46:40.144Z,2.00
2022-08-14T06:49:07.444Z,2.10
2022-08-14T06:51:44.886Z,2.45
2022-08-14T06:54:15.073Z,2.20
2022-08-14T06:56:54.339Z,2.10
2022-08-14T06:59:24.284Z,2.35
2022-08-14T07:05:20.975Z,2.10
2022-08-14T07:07:52.980Z,2.15
2022-08-14T07:10:25.415Z,2.08
2022-08-14T07:13:04.032Z,2.10
2022-08-14T07:15:43.584Z,2.30
2022-08-14T07:18:25.908Z,2.13
2022-08-14T07:39:45.439Z,2.03
2022-08-14T07:42:26.254Z,2.10
2022-08-14T07:44:50.744Z,2.40
2022-08-14T08:07:13.772Z,2.53
2022-08-14T08:09:49.224Z,2.33
2022-08-14T08:12:29.536Z,2.40
2022-08-14T08:15:07.149Z,2.30
2022-08-14T08:17:53.531Z,2.20
2022-08-14T08:20:40.370Z,2.40
2022-08-14T08:23:40.077Z,2.25
2022-08-14T08:26:11.135Z,2.10
2022-08-14T08:28:43.648Z,2.00
2022-08-14T08:31:32.836Z,2.20
2022-08-14T08:34:14.349Z,2.42
2022-08-14T08:36:52.592Z,2.10
2022-08-14T08:39:22.406Z,2.20
2022-08-14T08:41:53.740Z,2.30
2022-08-14T08:44:31.628Z,2.22
2022-08-14T08:47:06.536Z,2.28
2022-08-14T08:49:52.857Z,2.17
2022-08-14T08:52:31.423Z,2.03
2022-08-14T08:55:01.115Z,2.05
2022-08-14T08:57:42.126Z,2.10
2022-08-14T09:00:25.114Z,2.10
2022-08-14T09:03:04.365Z,2.25
2022-08-14T09:05:36.184Z,2.28
2022-08-14T09:08:26.550Z,2.33
2022-08-14T09:11:02.009Z,2.10
2022-08-14T09:13:31.273Z,2.20
2022-08-14T09:16:18.542Z,1.90
2022-08-14T09:18:47.475Z,2.20
2022-08-14T09:21:18.388Z,2.00
2022-08-14T09:26:52.047Z,2.10
2022-08-14T09:29:31.780Z,2.08
2022-08-14T09:32:58.058Z,2.38
2022-08-14T09:35:08.524Z,2.28
2022-08-14T09:37:58.834Z,2.30
2022-08-14T09:40:48.775Z,2.22
2022-08-14T09:43:59.393Z,2.03
2022-08-14T09:46:32.394Z,1.98
2022-08-14T09:49:16.508Z,2.10
2022-08-14T09:51:58.540Z,2.00
2022-08-14T09:54:54.734Z,2.00
2022-08-14T10:01:06.202Z,2.20
2022-08-14T10:06:33.338Z,2.38
2022-08-14T10:09:11.901Z,2.00
2022-08-14T10:12:06.150Z,2.05
2022-08-14T10:14:42.758Z,2.13
2022-08-14T10:17:38.840Z,2.15
2022-08-14T10:20:07.465Z,2.10
2022-08-14T10:23:14.631Z,2.17
2022-08-14T10:25:55.339Z,2.45
2022-08-14T10:29:03.865Z,2.08
2022-08-14T10:31:45.037Z,1.90
2022-08-14T10:34:33.434Z,2.13
2022-08-14T10:37:23.078Z,2.03
2022-08-14T10:40:10.215Z,1.95
2022-08-14T10:42:44.003Z,1.85
2022-08-14T10:45:25.847Z,1.90
2022-08-14T10:48:08.676Z,1.98
2022-08-14T10:50:47.823Z,2.10
2022-08-14T10:53:27.384Z,2.17
2022-08-14T10:56:21.529Z,2.22
2022-08-14T10:59:14.684Z,1.88
2022-08-14T11:01:58.665Z,2.20
2022-08-14T11:04:53.712Z,1.83
2022-08-14T11:07:25.067Z,2.03
2022-08-14T11:10:52.736Z,2.30
2022-08-14T11:13:30.914Z,2.10
2022-08-14T11:16:18.361Z,2.33
2022-08-14T11:19:01.323Z,2.10
2022-08-14T11:21:58.455Z,2.33
2022-08-14T11:24:55.257Z,2.22
2022-08-14T11:27:33.265Z,2.25
2022-08-14T11:30:49.894Z,2.17
2022-08-14T11:33:17.044Z,2.20
2022-08-14T11:39:09.799Z,2.20
2022-08-14T11:42:56.884Z,1.90
2022-08-14T11:49:02.359Z,2.00
2022-08-14T11:51:53.954Z,2.10
2022-08-14T11:54:42.094Z,1.98
2022-08-14T11:57:28.994Z,1.90
2022-08-14T12:00:19.514Z,1.95
2022-08-14T12:03:46.023Z,1.77
2022-08-14T12:06:04.901Z,2.25
2022-08-14T12:08:52.801Z,2.15
2022-08-14T12:11:35.664Z,2.00
2022-08-14T12:14:34.714Z,2.10
2022-08-14T12:17:13.664Z,2.00
2022-08-14T12:20:06.112Z,2.10
2022-08-14T12:22:49.416Z,1.90
2022-08-14T12:25:26.084Z,1.77
2022-08-14T12:27:59.411Z,1.70
2022-08-14T12:30:53.651Z,2.03
2022-08-14T12:33:37.334Z,1.85
2022-08-14T12:36:24.124Z,1.88
2022-08-14T12:38:56.014Z,1.70
2022-08-14T12:41:41.701Z,2.00
2022-08-14T12:44:13.050Z,1.83
2022-08-14T12:46:46.639Z,1.80
2022-08-14T12:49:18.290Z,1.80
2022-08-14T12:52:17.182Z,1.90
2022-08-14T12:55:08.200Z,1.95
2022-08-14T12:57:53.069Z,1.98
2022-08-14T13:00:28.330Z,2.00
2022-08-14T13:03:13.556Z,1.90
2022-08-14T13:05:51.250Z,1.70
2022-08-14T13:08:32.920Z,1.80
2022-08-14T13:11:07.244Z,1.90
2022-08-14T13:13:46.131Z,1.80
2022-08-14T13:16:33.577Z,2.17
2022-08-14T13:19:05.148Z,1.98
2022-08-14T13:22:05.785Z,2.10
2022-08-14T13:24:38.469Z,1.90
2022-08-14T13:27:13.219Z,1.80
2022-08-14T13:29:55.465Z,1.80
2022-08-14T13:32:29.494Z,1.80
2022-08-14T13:34:59.416Z,1.90
2022-08-14T13:37:33.954Z,2.00
2022-08-14T13:40:14.021Z,2.05
2022-08-14T13:42:53.864Z,1.85
2022-08-14T13:45:33.895Z,1.95
2022-08-14T13:48:33.418Z,1.80
2022-08-14T13:51:10.651Z,1.80
2022-08-14T13:56:44.534Z,2.00
2022-08-14T13:59:20.563Z,2.22
2022-08-14T14:02:13.445Z,1.80
2022-08-14T14:05:03.793Z,2.05
2022-08-14T14:07:35.187Z,1.80
2022-08-14T14:10:17.630Z,1.70
2022-08-14T14:12:56.622Z,1.90
2022-08-14T14:15:34.075Z,1.63
2022-08-14T14:18:29.772Z,1.73
2022-08-14T14:21:09.070Z,2.17
2022-08-14T14:23:38.161Z,1.70
2022-08-14T14:26:20.006Z,1.80
2022-08-14T14:28:58.592Z,1.70
2022-08-14T14:31:32.408Z,1.67
2022-08-14T14:34:28.924Z,1.67
2022-08-14T14:37:11.324Z,1.80
2022-08-14T14:40:53.787Z,1.50
2022-08-14T14:42:35.620Z,1.60
2022-08-14T14:45:16.854Z,1.90
2022-08-14T14:47:58.933Z,1.90
2022-08-14T14:50:30.904Z,1.80
2022-08-14T14:53:13.254Z,1.85
2022-08-14T14:56:04.669Z,1.60
2022-08-14T14:58:39.534Z,1.90
2022-08-14T15:01:12.991Z,1.70
2022-08-14T15:03:44.275Z,1.70
2022-08-14T15:06:17.575Z,1.65
2022-08-14T15:08:56.619Z,1.75
2022-08-14T15:11:30.539Z,1.80
2022-08-14T15:14:00.386Z,1.70
2022-08-14T15:16:31.423Z,1.92
2022-08-14T15:19:01.944Z,1.80
2022-08-14T15:21:37.764Z,1.80
2022-08-14T15:24:09.294Z,1.83
2022-08-14T15:26:36.471Z,1.77
2022-08-14T15:29:11.434Z,1.65
2022-08-14T15:34:45.884Z,1.80
2022-08-14T15:37:12.693Z,1.80
2022-08-14T15:39:44.332Z,1.73
2022-08-14T15:42:16.427Z,1.95
2022-08-14T15:44:57.752Z,1.80
2022-08-14T15:47:30.695Z,1.95
2022-08-14T15:50:06.443Z,1.80
2022-08-14T15:52:39.674Z,1.70
2022-08-14T15:55:13.053Z,1.80
2022-08-14T15:58:01.483Z,1.55
2022-08-14T16:00:54.859Z,1.80
2022-08-14T16:03:25.346Z,1.73
2022-08-14T16:06:17.963Z,1.65
2022-08-14T16:08:58.741Z,2.05
2022-08-14T16:11:32.707Z,1.70
2022-08-14T16:14:06.847Z,1.70
2022-08-14T16:16:50.340Z,1.70
2022-08-14T16:19:23.637Z,1.80
2022-08-14T16:22:56.980Z,2.00
2022-08-14T16:24:59.790Z,1.80
2022-08-14T16:27:43.157Z,1.80
2022-08-14T16:30:20.737Z,1.88
2022-08-14T16:32:58.957Z,1.70
2022-08-14T16:35:42.370Z,1.70
2022-08-14T16:38:45.374Z,2.03
2022-08-14T16:41:31.369Z,2.00
2022-08-14T16:44:31.631Z,1.90
2022-08-14T16:47:06.603Z,1.83
2022-08-14T16:50:04.137Z,2.10
2022-08-14T16:52:44.990Z,1.90
2022-08-14T16:55:16.868Z,1.70
2022-08-14T16:58:05.733Z,1.98
2022-08-14T17:00:43.600Z,1.98
2022-08-14T17:03:14.729Z,1.80
2022-08-14T17:05:47.030Z,1.95
2022-08-14T17:08:31.566Z,1.50
2022-08-14T17:11:09.965Z,1.80
2022-08-14T17:13:59.774Z,1.83
2022-08-14T17:16:43.024Z,2.15
2022-08-14T17:19:19.582Z,1.98
2022-08-14T17:21:50.252Z,1.90
2022-08-14T17:24:55.797Z,2.30
2022-08-14T17:27:10.815Z,2.20
2022-08-14T17:29:56.433Z,2.22
2022-08-14T17:32:55.677Z,2.10
2022-08-14T17:35:27.168Z,2.05
2022-08-14T17:38:38.643Z,2.28
2022-08-14T17:41:33.022Z,2.00
2022-08-14T17:44:33.985Z,2.30
2022-08-14T17:47:18.114Z,2.20
2022-08-14T17:49:51.996Z,2.10
2022-08-14T17:52:34.781Z,2.05
2022-08-14T17:55:07.566Z,2.17
2022-08-14T17:57:40.862Z,1.98
2022-08-14T18:00:17.378Z,2.30
2022-08-14T18:02:50.367Z,2.00
2022-08-14T18:05:23.497Z,2.15
2022-08-14T18:08:33.960Z,2.10
2022-08-14T18:10:57.545Z,2.10
2022-08-14T18:13:51.643Z,2.00
2022-08-14T18:16:20.596Z,2.25
2022-08-14T18:18:50.980Z,2.40
2022-08-14T18:21:41.814Z,2.20
2022-08-14T18:24:20.405Z,2.33
2022-08-14T18:27:02.880Z,3.05
2022-08-14T18:29:56.240Z,3.53
2022-08-14T18:32:30.543Z,3.80
2022-08-14T18:35:13.914Z,2.58
2022-08-14T18:37:47.714Z,2.47
2022-08-14T18:40:34.486Z,2.38
2022-08-14T18:43:04.109Z,2.50
2022-08-14T18:46:04.544Z,3.00
2022-08-14T18:48:51.701Z,2.63
2022-08-14T18:51:44.757Z,2.42
2022-08-14T18:54:29.951Z,3.30
2022-08-14T18:57:09.853Z,2.75
2022-08-14T18:59:43.272Z,2.97
2022-08-14T19:02:30.548Z,2.65
2022-08-14T19:05:02.374Z,2.53
2022-08-14T19:07:34.106Z,2.38
2022-08-14T19:10:16.789Z,2.42
2022-08-14T19:12:58.714Z,2.40
2022-08-14T19:15:33.009Z,2.40
2022-08-14T19:18:25.953Z,2.63
2022-08-14T19:21:13.016Z,2.90
2022-08-14T19:23:43.842Z,2.80
2022-08-14T19:26:54.102Z,2.85
2022-08-14T19:29:39.484Z,2.60
2022-08-14T19:32:36.487Z,2.60
2022-08-14T19:35:19.719Z,2.67
2022-08-14T19:37:54.481Z,2.35
2022-08-14T19:40:35.458Z,2.80
2022-08-14T19:43:11.004Z,2.90
2022-08-14T19:45:39.037Z,2.70
2022-08-14T19:48:16.063Z,2.88
2022-08-14T19:50:48.580Z,2.88
2022-08-14T19:53:18.513Z,2.88
2022-08-14T19:56:02.223Z,2.90
2022-08-14T19:58:55.268Z,3.30
2022-08-14T20:01:37.596Z,2.85
2022-08-14T20:04:45.895Z,2.80
2022-08-14T20:07:04.069Z,2.73
2022-08-14T20:11:12.529Z,2.95
2022-08-14T20:12:35.325Z,2.92
2022-08-14T20:15:18.001Z,2.85
2022-08-14T20:17:53.340Z,2.85
2022-08-14T20:20:31.754Z,2.90
2022-08-14T20:23:11.966Z,2.92
2022-08-14T20:25:55.594Z,2.63
2022-08-14T20:28:30.692Z,2.38
2022-08-14T20:31:19.806Z,2.70
2022-08-14T20:34:18.611Z,2.75
2022-08-14T20:37:01.755Z,2.88
2022-08-14T20:39:34.604Z,2.47
2022-08-14T20:42:38.798Z,2.60
2022-08-14T20:45:19.818Z,2.70
2022-08-14T20:47:50.646Z,2.78
2022-08-14T20:50:29.101Z,2.28
2022-08-14T20:53:05.939Z,2.50
2022-08-14T20:55:41.743Z,2.22
2022-08-14T20:58:42.238Z,2.83
2022-08-14T21:01:16.328Z,2.33
2022-08-14T21:03:58.377Z,2.60
2022-08-14T21:07:23.953Z,2.60
2022-08-14T21:10:04.643Z,2.40
2022-08-14T21:12:33.548Z,2.83
2022-08-14T21:15:10.191Z,2.67
2022-08-14T21:17:41.654Z,2.80
2022-08-14T21:20:25.431Z,3.08
2022-08-14T21:23:00.426Z,2.85
2022-08-14T21:25:31.727Z,2.60
2022-08-14T21:28:04.243Z,2.67
2022-08-14T21:30:51.866Z,2.50
2022-08-14T21:33:21.842Z,3.00
2022-08-14T21:35:55.689Z,3.10
2022-08-14T21:38:33.893Z,2.85
2022-08-14T21:41:42.294Z,2.60
2022-08-14T21:44:17.893Z,2.95
2022-08-14T21:46:56.637Z,2.83
2022-08-14T21:49:37.468Z,2.50
2022-08-14T21:52:52.047Z,2.75
2022-08-14T21:55:09.153Z,2.60
2022-08-14T21:58:46.334Z,2.67
2022-08-14T22:00:36.550Z,3.20
2022-08-14T22:03:17.286Z,2.88
2022-08-14T22:05:51.915Z,3.58
2022-08-14T22:08:26.816Z,3.00
2022-08-14T22:13:32.528Z,2.95
2022-08-14T22:16:02.379Z,2.50
2022-08-14T22:18:33.657Z,2.70
2022-08-14T22:21:05.759Z,2.70
2022-08-14T22:23:35.785Z,2.88
2022-08-14T22:26:05.032Z,2.88
2022-08-14T22:28:33.734Z,2.70
2022-08-14T22:31:04.031Z,2.72
2022-08-14T22:33:42.938Z,2.70
2022-08-14T22:36:34.236Z,2.72
2022-08-14T22:39:12.653Z,3.05
2022-08-14T22:41:43.393Z,2.60
2022-08-14T22:44:17.896Z,2.70
2022-08-14T22:46:45.469Z,2.53
2022-08-14T22:50:32.267Z,2.70
2022-08-14T22:52:31.905Z,2.67
2022-08-14T22:54:58.728Z,2.45
2022-08-14T22:57:37.445Z,3.00
2022-08-14T23:00:13.551Z,2.80
2022-08-14T23:02:44.189Z,2.72
2022-08-14T23:05:15.329Z,3.15
2022-08-14T23:08:58.657Z,2.58
2022-08-14T23:10:32.259Z,2.65
2022-08-14T23:13:04.592Z,2.55
2022-08-14T23:15:33.630Z,2.75
2022-08-14T23:18:03.488Z,2.65
2022-08-14T23:20:32.128Z,2.70
2022-08-14T23:22:59.346Z,2.70
2022-08-14T23:25:56.693Z,2.90
2022-08-14T23:28:33.659Z,2.85
2022-08-14T23:31:33.458Z,2.60
2022-08-14T23:34:07.468Z,2.90
2022-08-14T23:36:54.171Z,2.92
2022-08-14T23:39:30.347Z,2.72
2022-08-14T23:42:04.565Z,3.13
2022-08-14T23:44:34.957Z,2.88
2022-08-14T23:47:11.570Z,2.67
2022-08-14T23:50:00.366Z,2.58
2022-08-14T23:52:55.657Z,2.88
2022-08-14T23:55:19.006Z,2.72
2022-08-14T23:57:58.255Z,2.90
